Time,TemperatureF,DewpointF,PressureIn,WindDirection,WindDirectionDegrees,WindSpeedMPH,WindSpeedGustMPH,Humidity,HourlyPrecipIn,Conditions,Clouds,dailyrainin,SolarRadiationWatts/m^2,SoftwareType,DateUTC
2013-05-28 00:12:00,65.0,-30.0,-100.00,NNW,335,0.0,2.0,0,0.00,,,0.00,0.000000,,2013-05-28 10:12:00,
2013-05-28 00:22:00,65.0,-30.0,-100.00,NNW,335,0.0,2.0,0,0.00,,,0.00,0.000000,,2013-05-28 10:22:00,
2013-05-28 00:32:00,65.0,-30.0,-100.00,NNW,335,0.0,2.0,0,0.00,,,0.00,0.000000,,2013-05-28 10:32:00,
2013-05-28 00:42:00,65.0,-30.0,-100.00,NNW,335,0.0,2.0,0,0.00,,,0.00,0.000000,,2013-05-28 10:42:00,
2013-05-28 00:51:00,65.0,-30.0,-100.00,NNW,348,0.0,0.0,0,0.00,,,0.00,0.000000,,2013-05-28 10:51:00,
2013-05-28 01:11:00,65.0,-30.0,-100.00,NNW,348,0.0,0.0,0,0.00,,,0.00,0.000000,,2013-05-28 11:11:00,
2013-05-28 01:22:00,65.0,-30.0,-100.00,NNW,348,0.0,0.0,0,0.00,,,0.00,0.000000,,2013-05-28 11:22:00,
2013-05-28 01:32:00,65.0,-30.0,-100.00,NNW,348,0.0,0.0,0,0.00,,,0.00,0.000000,,2013-05-28 11:32:00,
2013-05-28 01:41:00,65.0,-30.0,-100.00,NNW,348,0.0,0.0,0,0.00,,,0.00,0.000000,,2013-05-28 11:41:00,
2013-05-28 01:51:00,65.0,-30.0,-100.00,North,357,0.0,0.0,0,0.00,,,0.00,0.000000,,2013-05-28 11:51:00,
2013-05-28 02:11:00,65.0,-30.0,-100.00,North,357,0.0,0.0,0,0.00,,,0.00,0.000000,,2013-05-28 12:11:00,
2013-05-28 02:21:00,65.0,-30.0,-100.00,North,357,0.0,0.0,0,0.00,,,0.00,0.000000,,2013-05-28 12:21:00,
2013-05-28 02:31:00,65.0,-30.0,-100.00,North,357,0.0,0.0,0,0.00,,,0.00,0.000000,,2013-05-28 12:31:00,
2013-05-28 02:42:00,65.0,-30.0,-100.00,North,357,0.0,0.0,0,0.00,,,0.00,0.000000,,2013-05-28 12:42:00,
2013-05-28 02:51:00,66.0,-29.0,-100.00,NNW,337,0.0,4.0,0,0.00,,,0.00,0.000000,,2013-05-28 12:51:00,
2013-05-28 03:11:00,66.0,-29.0,-100.00,NNW,337,0.0,4.0,0,0.00,,,0.00,0.000000,,2013-05-28 13:11:00,
2013-05-28 03:21:00,66.0,-29.0,-100.00,NNW,337,0.0,4.0,0,0.00,,,0.00,0.000000,,2013-05-28 13:21:00,
2013-05-28 03:32:00,66.0,-29.0,-100.00,NNW,337,0.0,4.0,0,0.00,,,0.00,0.000000,,2013-05-28 13:32:00,
2013-05-28 03:42:00,66.0,-29.0,-100.00,NNW,337,0.0,4.0,0,0.00,,,0.00,0.000000,,2013-05-28 13:42:00,
2013-05-28 03:51:00,66.0,-29.0,-100.00,NE,34,0.0,3.0,0,0.05,,,0.05,0.000000,,2013-05-28 13:51:00,
2013-05-28 04:11:00,66.0,-29.0,-100.00,NE,34,0.0,3.0,0,0.05,,,0.05,0.000000,,2013-05-28 14:11:00,
2013-05-28 04:21:00,66.0,-29.0,-100.00,NE,34,0.0,3.0,0,0.05,,,0.05,0.000000,,2013-05-28 14:21:00,
2013-05-28 04:32:00,66.0,-29.0,-100.00,NE,34,0.0,3.0,0,0.05,,,0.05,0.000000,,2013-05-28 14:32:00,
2013-05-28 04:41:00,66.0,-29.0,-100.00,NE,34,0.0,3.0,0,0.05,,,0.05,0.000000,,2013-05-28 14:41:00,
2013-05-28 04:51:00,65.0,-30.0,-100.00,WSW,244,0.0,6.0,0,0.40,,,-99.99,0.000000,,2013-05-28 14:51:00,
2013-05-28 05:11:00,65.0,-30.0,-100.00,WSW,244,0.0,6.0,0,0.40,,,-99.99,0.000000,,2013-05-28 15:11:00,
2013-05-28 05:21:00,65.0,-30.0,-100.00,WSW,244,0.0,6.0,0,0.40,,,-99.99,0.000000,,2013-05-28 15:21:00,
2013-05-28 05:32:00,65.0,-30.0,-100.00,WSW,244,0.0,6.0,0,0.40,,,-99.99,0.000000,,2013-05-28 15:32:00,
2013-05-28 05:43:00,65.0,-30.0,-100.00,WSW,244,0.0,6.0,0,0.40,,,-99.99,0.000000,,2013-05-28 15:43:00,
2013-05-28 05:51:00,65.0,-25.0,-100.00,South,176,0.0,2.0,2,0.00,,,0.45,0.000000,,2013-05-28 15:51:00,
2013-05-28 06:12:00,65.0,-25.0,-100.00,South,176,0.0,2.0,2,0.00,,,0.45,0.000000,,2013-05-28 16:12:00,
2013-05-28 06:22:00,65.0,-25.0,-100.00,South,176,0.0,2.0,2,0.00,,,0.45,0.000000,,2013-05-28 16:22:00,
2013-05-28 06:33:00,65.0,-25.0,-100.00,South,176,0.0,2.0,2,0.00,,,0.45,0.000000,,2013-05-28 16:33:00,
2013-05-28 06:42:00,65.0,-25.0,-100.00,South,176,0.0,2.0,2,0.00,,,0.45,0.000000,,2013-05-28 16:42:00,
2013-05-28 06:51:00,65.0,-25.0,-100.00,NNE,23,0.0,2.0,2,0.00,,,0.45,16.000000,,2013-05-28 16:51:00,
2013-05-28 07:12:00,65.0,-25.0,-100.00,NNE,23,0.0,2.0,2,0.00,,,0.45,16.000000,,2013-05-28 17:12:00,
2013-05-28 07:22:00,65.0,-25.0,-100.00,NNE,23,0.0,2.0,2,0.00,,,0.45,16.000000,,2013-05-28 17:22:00,
2013-05-28 07:32:00,65.0,-25.0,-100.00,NNE,23,0.0,2.0,2,0.00,,,0.45,16.000000,,2013-05-28 17:32:00,
2013-05-28 07:41:00,65.0,-25.0,-100.00,NNE,23,0.0,2.0,2,0.00,,,0.45,16.000000,,2013-05-28 17:41:00,
2013-05-28 07:51:00,66.0,-17.0,-100.00,NNE,31,0.0,0.0,3,0.00,,,0.45,73.000000,,2013-05-28 17:51:00,
2013-05-28 08:11:00,66.0,-17.0,-100.00,NNE,31,0.0,0.0,3,0.00,,,0.45,73.000000,,2013-05-28 18:11:00,
2013-05-28 08:21:00,66.0,-17.0,-100.00,NNE,31,0.0,0.0,3,0.00,,,0.45,73.000000,,2013-05-28 18:21:00,
2013-05-28 08:32:00,66.0,-17.0,-100.00,NNE,31,0.0,0.0,3,0.00,,,0.45,73.000000,,2013-05-28 18:32:00,
2013-05-28 08:42:00,66.0,-17.0,-100.00,NNE,31,0.0,0.0,3,0.00,,,0.45,73.000000,,2013-05-28 18:42:00,
2013-05-28 08:51:00,68.0,-16.0,-100.00,NNE,13,0.0,0.0,3,0.00,,,0.45,167.000000,,2013-05-28 18:51:00,
2013-05-28 09:11:00,68.0,-16.0,-100.00,NNE,13,0.0,0.0,3,0.00,,,0.45,167.000000,,2013-05-28 19:11:00,
2013-05-28 09:21:00,68.0,-16.0,-100.00,NNE,13,0.0,0.0,3,0.00,,,0.45,167.000000,,2013-05-28 19:21:00,
2013-05-28 09:32:00,68.0,-16.0,-100.00,NNE,13,0.0,0.0,3,0.00,,,0.45,167.000000,,2013-05-28 19:32:00,
2013-05-28 09:41:00,68.0,-16.0,-100.00,NNE,13,0.0,0.0,3,0.00,,,0.45,167.000000,,2013-05-28 19:41:00,
2013-05-28 09:51:00,71.0,-26.0,-100.00,ENE,75,1.0,3.0,0,0.00,,,0.45,303.000000,,2013-05-28 19:51:00,
2013-05-28 10:11:00,71.0,-26.0,-100.00,ENE,75,1.0,3.0,0,0.00,,,0.45,303.000000,,2013-05-28 20:11:00,
2013-05-28 10:22:00,71.0,-26.0,-100.00,ENE,75,1.0,3.0,0,0.00,,,0.45,303.000000,,2013-05-28 20:22:00,
2013-05-28 10:32:00,71.0,-26.0,-100.00,ENE,75,1.0,3.0,0,0.00,,,0.45,303.000000,,2013-05-28 20:32:00,
2013-05-28 10:42:00,71.0,-26.0,-100.00,ENE,75,1.0,3.0,0,0.00,,,0.45,303.000000,,2013-05-28 20:42:00,
2013-05-28 10:51:00,76.0,-23.0,-100.00,ENE,76,2.0,5.0,0,0.00,,,0.45,565.000000,,2013-05-28 20:51:00,
2013-05-28 11:11:00,76.0,-23.0,-100.00,ENE,76,2.0,5.0,0,0.00,,,0.45,565.000000,,2013-05-28 21:11:00,
2013-05-28 11:21:00,76.0,-23.0,-100.00,ENE,76,2.0,5.0,0,0.00,,,0.45,565.000000,,2013-05-28 21:21:00,
2013-05-28 11:33:00,76.0,-23.0,-100.00,ENE,76,2.0,5.0,0,0.00,,,0.45,565.000000,,2013-05-28 21:33:00,
2013-05-28 11:43:00,76.0,-23.0,-100.00,ENE,76,2.0,5.0,0,0.00,,,0.45,565.000000,,2013-05-28 21:43:00,
2013-05-28 11:51:00,75.0,-24.0,-100.00,ENE,60,3.0,8.0,0,0.00,,,0.45,494.000000,,2013-05-28 21:51:00,
2013-05-28 12:12:00,75.0,-24.0,-100.00,ENE,60,3.0,8.0,0,0.00,,,0.45,494.000000,,2013-05-28 22:12:00,
2013-05-28 12:22:00,75.0,-24.0,-100.00,ENE,60,3.0,8.0,0,0.00,,,0.45,494.000000,,2013-05-28 22:22:00,
2013-05-28 12:32:00,75.0,-24.0,-100.00,ENE,60,3.0,8.0,0,0.00,,,0.45,494.000000,,2013-05-28 22:32:00,
2013-05-28 12:42:00,75.0,-24.0,-100.00,ENE,60,3.0,8.0,0,0.00,,,0.45,494.000000,,2013-05-28 22:42:00,
2013-05-28 12:51:00,74.0,-25.0,-100.00,East,79,1.0,6.0,0,0.00,,,0.45,415.000000,,2013-05-28 22:51:00,
2013-05-28 13:11:00,74.0,-25.0,-100.00,East,79,1.0,6.0,0,0.00,,,0.45,415.000000,,2013-05-28 23:11:00,
2013-05-28 13:21:00,74.0,-25.0,-100.00,East,79,1.0,6.0,0,0.00,,,0.45,415.000000,,2013-05-28 23:21:00,
2013-05-28 13:32:00,74.0,-25.0,-100.00,East,79,1.0,6.0,0,0.00,,,0.45,415.000000,,2013-05-28 23:32:00,
2013-05-28 13:42:00,74.0,-25.0,-100.00,East,79,1.0,6.0,0,0.00,,,0.45,415.000000,,2013-05-28 23:42:00,
2013-05-28 13:51:00,72.0,-26.0,-100.00,ENE,68,1.0,6.0,0,0.00,,,0.45,121.000000,,2013-05-28 23:51:00,
2013-05-28 14:11:00,72.0,-26.0,-100.00,ENE,68,1.0,6.0,0,0.00,,,0.45,121.000000,,2013-05-29 00:11:00,
2013-05-28 14:21:00,72.0,-26.0,-100.00,ENE,68,1.0,6.0,0,0.00,,,0.45,121.000000,,2013-05-29 00:21:00,
2013-05-28 14:32:00,72.0,-26.0,-100.00,ENE,68,1.0,6.0,0,0.00,,,0.45,121.000000,,2013-05-29 00:32:00,
2013-05-28 14:41:00,72.0,-26.0,-100.00,ENE,68,1.0,6.0,0,0.00,,,0.45,121.000000,,2013-05-29 00:41:00,
2013-05-28 14:51:00,77.0,-23.0,-100.00,NE,51,2.0,7.0,0,0.00,,,0.45,472.000000,,2013-05-29 00:51:00,
2013-05-28 15:11:00,77.0,-23.0,-100.00,NE,51,2.0,7.0,0,0.00,,,0.45,472.000000,,2013-05-29 01:11:00,
2013-05-28 15:22:00,77.0,-23.0,-100.00,NE,51,2.0,7.0,0,0.00,,,0.45,472.000000,,2013-05-29 01:22:00,
2013-05-28 15:32:00,77.0,-23.0,-100.00,NE,51,2.0,7.0,0,0.00,,,0.45,472.000000,,2013-05-29 01:32:00,
2013-05-28 15:41:00,77.0,-23.0,-100.00,NE,51,2.0,7.0,0,0.00,,,0.45,472.000000,,2013-05-29 01:41:00,
2013-05-28 15:51:00,70.0,-27.0,-100.00,SW,226,2.0,6.0,0,0.09,,,0.54,163.000000,,2013-05-29 01:51:00,
2013-05-28 16:12:00,70.0,-27.0,-100.00,SW,226,2.0,6.0,0,0.09,,,0.54,163.000000,,2013-05-29 02:12:00,
2013-05-28 16:21:00,70.0,-27.0,-100.00,SW,226,2.0,6.0,0,0.09,,,0.54,163.000000,,2013-05-29 02:21:00,
2013-05-28 16:32:00,70.0,-27.0,-100.00,SW,226,2.0,6.0,0,0.09,,,0.54,163.000000,,2013-05-29 02:32:00,
2013-05-28 16:41:00,70.0,-27.0,-100.00,SW,226,2.0,6.0,0,0.09,,,0.54,163.000000,,2013-05-29 02:41:00,
2013-05-28 16:51:00,69.0,-28.0,-100.00,SSW,212,0.0,5.0,0,0.17,,,0.71,76.000000,,2013-05-29 02:51:00,
2013-05-28 17:12:00,69.0,-28.0,-100.00,SSW,212,0.0,5.0,0,0.17,,,0.71,76.000000,,2013-05-29 03:12:00,
2013-05-28 17:21:00,69.0,-28.0,-100.00,SSW,212,0.0,5.0,0,0.17,,,0.71,76.000000,,2013-05-29 03:21:00,
2013-05-28 17:33:00,69.0,-28.0,-100.00,SSW,212,0.0,5.0,0,0.17,,,0.71,76.000000,,2013-05-29 03:33:00,
2013-05-28 17:43:00,69.0,-28.0,-100.00,SSW,212,0.0,5.0,0,0.17,,,0.71,76.000000,,2013-05-29 03:43:00,
2013-05-28 17:51:00,69.0,-35.0,-100.00,SW,215,0.0,0.0,1,0.01,,,0.72,62.000000,,2013-05-29 03:51:00,
2013-05-28 18:12:00,69.0,-35.0,-100.00,SW,215,0.0,0.0,1,0.01,,,0.72,62.000000,,2013-05-29 04:12:00,
2013-05-28 18:23:00,69.0,-35.0,-100.00,SW,215,0.0,0.0,1,0.01,,,0.72,62.000000,,2013-05-29 04:23:00,
2013-05-28 18:33:00,69.0,-35.0,-100.00,SW,215,0.0,0.0,1,0.01,,,0.72,62.000000,,2013-05-29 04:33:00,
2013-05-28 18:42:00,69.0,-35.0,-100.00,SW,215,0.0,0.0,1,0.01,,,0.72,62.000000,,2013-05-29 04:42:00,
2013-05-28 18:51:00,68.0,-23.0,-100.00,NE,40,0.0,1.0,2,0.02,,,0.74,44.000000,,2013-05-29 04:51:00,
2013-05-28 19:12:00,68.0,-23.0,-100.00,NE,40,0.0,1.0,2,0.02,,,0.74,44.000000,,2013-05-29 05:12:00,
2013-05-28 19:22:00,68.0,-23.0,-100.00,NE,40,0.0,1.0,2,0.02,,,0.74,44.000000,,2013-05-29 05:22:00,
2013-05-28 19:32:00,68.0,-23.0,-100.00,NE,40,0.0,1.0,2,0.02,,,0.74,44.000000,,2013-05-29 05:32:00,
2013-05-28 19:42:00,68.0,-23.0,-100.00,NE,40,0.0,1.0,2,0.02,,,0.74,44.000000,,2013-05-29 05:42:00,
2013-05-28 19:51:00,67.0,-24.0,-100.00,ESE,115,0.0,2.0,2,0.00,,,0.74,3.000000,,2013-05-29 05:51:00,
2013-05-28 20:11:00,67.0,-24.0,-100.00,ESE,115,0.0,2.0,2,0.00,,,0.74,3.000000,,2013-05-29 06:11:00,
2013-05-28 20:21:00,67.0,-24.0,-100.00,ESE,115,0.0,2.0,2,0.00,,,0.74,3.000000,,2013-05-29 06:21:00,
2013-05-28 20:31:00,67.0,-24.0,-100.00,ESE,115,0.0,2.0,2,0.00,,,0.74,3.000000,,2013-05-29 06:31:00,
2013-05-28 20:41:00,67.0,-24.0,-100.00,ESE,115,0.0,2.0,2,0.00,,,0.74,3.000000,,2013-05-29 06:41:00,
2013-05-28 20:51:00,66.0,-17.0,-100.00,NNE,22,0.0,0.0,3,0.00,,,0.74,0.000000,,2013-05-29 06:51:00,
2013-05-28 21:11:00,66.0,-17.0,-100.00,NNE,22,0.0,0.0,3,0.00,,,0.74,0.000000,,2013-05-29 07:11:00,
2013-05-28 21:21:00,66.0,-17.0,-100.00,NNE,22,0.0,0.0,3,0.00,,,0.74,0.000000,,2013-05-29 07:21:00,
2013-05-28 21:34:00,66.0,-17.0,-100.00,NNE,22,0.0,0.0,3,0.00,,,0.74,0.000000,,2013-05-29 07:34:00,
2013-05-28 21:42:00,66.0,-17.0,-100.00,NNE,22,0.0,0.0,3,0.00,,,0.74,0.000000,,2013-05-29 07:42:00,
2013-05-28 21:51:00,65.0,-18.0,-100.00,NNE,13,1.0,4.0,3,0.00,,,0.74,0.000000,,2013-05-29 07:51:00,
2013-05-28 22:11:00,65.0,-18.0,-100.00,NNE,13,1.0,4.0,3,0.00,,,0.74,0.000000,,2013-05-29 08:11:00,
2013-05-28 22:21:00,65.0,-18.0,-100.00,NNE,13,1.0,4.0,3,0.00,,,0.74,0.000000,,2013-05-29 08:21:00,
2013-05-28 22:32:00,65.0,-18.0,-100.00,NNE,13,1.0,4.0,3,0.00,,,0.74,0.000000,,2013-05-29 08:32:00,
2013-05-28 22:41:00,65.0,-18.0,-100.00,NNE,13,1.0,4.0,3,0.00,,,0.74,0.000000,,2013-05-29 08:41:00,
2013-05-28 22:51:00,66.0,-11.0,-100.00,North,359,1.0,3.0,4,0.00,,,0.74,0.000000,,2013-05-29 08:51:00,
2013-05-28 23:11:00,66.0,-11.0,-100.00,North,359,1.0,3.0,4,0.00,,,0.74,0.000000,,2013-05-29 09:11:00,
2013-05-28 23:21:00,66.0,-11.0,-100.00,North,359,1.0,3.0,4,0.00,,,0.74,0.000000,,2013-05-29 09:21:00,
2013-05-28 23:33:00,66.0,-11.0,-100.00,North,359,1.0,3.0,4,0.00,,,0.74,0.000000,,2013-05-29 09:33:00,
2013-05-28 23:42:00,66.0,-11.0,-100.00,North,359,1.0,3.0,4,0.00,,,0.74,0.000000,,2013-05-29 09:42:00,
2013-05-28 23:51:00,66.0,-11.0,-100.00,North,7,0.0,0.0,4,0.00,,,0.74,0.000000,,2013-05-29 09:51:00,